Time;durP1;ratioP1;P1;durP2;ratioP2;P2;SDS_P1;SDS_P2;PMS_P1;PMS_P2;Temp;Humidity;BMP_temperature;BMP_pressure;BME280_temperature;BME280_humidity;BME280_pressure;Samples;Min_cycle;Max_cycle;Signal;HPM_P1;HPM_P2
2023/10/27 00:01:41;;;;;;;4.55;1.10;;;12.40;99.90;;;;;;5018928;28;20388;-69
2023/10/27 00:04:07;;;;;;;6.80;0.80;;;12.40;99.90;;;;;;5046903;28;20404;-69
2023/10/27 00:06:33;;;;;;;6.10;1.40;;;12.50;99.90;;;;;;5028158;28;20420;-69
2023/10/27 00:08:59;;;;;;;5.50;1.80;;;12.40;99.90;;;;;;5026602;28;20803;-69
2023/10/27 00:11:25;;;;;;;4.05;1.10;;;12.40;99.90;;;;;;5023232;28;20477;-69
2023/10/27 00:13:51;;;;;;;4.80;1.45;;;12.40;99.90;;;;;;5044223;28;20439;-69
2023/10/27 00:16:17;;;;;;;5.13;1.13;;;12.40;99.90;;;;;;5027709;28;20487;-69
2023/10/27 00:18:43;;;;;;;7.20;1.70;;;12.40;99.90;;;;;;5024220;28;20605;-69
2023/10/27 00:21:09;;;;;;;5.40;1.23;;;12.40;99.90;;;;;;5026277;28;20801;-69
2023/10/27 00:23:35;;;;;;;6.45;1.13;;;12.30;99.90;;;;;;5025760;28;20739;-69
2023/10/27 00:26:01;;;;;;;11.23;1.40;;;12.40;99.90;;;;;;5049189;28;20402;-69
2023/10/27 00:28:27;;;;;;;4.88;1.05;;;12.40;99.90;;;;;;5025856;28;20455;-69
2023/10/27 00:30:52;;;;;;;4.60;1.10;;;12.40;99.90;;;;;;5026671;28;20459;-69
2023/10/27 00:33:18;;;;;;;6.80;1.60;;;12.40;99.90;;;;;;5026420;28;20400;-69
2023/10/27 00:35:43;;;;;;;4.00;0.60;;;12.40;99.90;;;;;;5023437;28;20445;-69
2023/10/27 00:38:08;;;;;;;5.53;0.82;;;12.30;99.90;;;;;;5030187;28;20398;-69
2023/10/27 00:40:34;;;;;;;4.53;0.80;;;12.20;99.90;;;;;;5026277;28;20723;-69
2023/10/27 00:43:03;;;;;;;4.23;0.90;;;12.20;99.90;;;;;;5024465;28;20407;-69
2023/10/27 00:45:28;;;;;;;4.30;1.00;;;12.20;99.90;;;;;;5026349;28;20427;-69
2023/10/27 00:47:54;;;;;;;3.90;0.70;;;12.20;99.90;;;;;;5024911;28;20450;-69
2023/10/27 00:50:21;;;;;;;5.20;1.60;;;12.10;99.90;;;;;;5020939;28;20419;-69
2023/10/27 00:52:47;;;;;;;5.57;0.95;;;12.00;99.90;;;;;;5025614;28;20387;-69
2023/10/27 00:55:13;;;;;;;6.78;1.08;;;12.00;99.90;;;;;;5024226;28;20516;-69
2023/10/27 00:57:41;;;;;;;4.80;0.90;;;12.10;99.90;;;;;;5026358;28;20391;-68
2023/10/27 01:00:07;;;;;;;4.13;0.75;;;12.10;99.90;;;;;;5024387;28;20482;-69
2023/10/27 01:02:33;;;;;;;5.07;0.93;;;12.10;99.90;;;;;;5024383;28;20487;-68
2023/10/27 01:04:59;;;;;;;4.00;0.70;;;12.00;99.90;;;;;;5024249;28;20980;-69
2023/10/27 01:07:24;;;;;;;5.33;1.53;;;12.00;99.90;;;;;;5025236;28;20474;-68
2023/10/27 01:09:51;;;;;;;4.70;1.02;;;12.10;99.90;;;;;;5024120;28;20786;-69
2023/10/27 01:12:16;;;;;;;4.47;1.10;;;12.10;99.90;;;;;;5023282;28;20414;-68
2023/10/27 01:14:42;;;;;;;4.32;0.68;;;12.10;99.90;;;;;;5022511;28;20389;-69
2023/10/27 01:17:09;;;;;;;4.30;0.80;;;12.10;73.50;;;;;;5020262;28;20404;-69
2023/10/27 01:19:36;;;;;;;5.90;1.00;;;12.10;49.00;;;;;;5023548;28;20385;-69
2023/10/27 01:22:02;;;;;;;7.43;1.00;;;12.10;91.60;;;;;;5021135;28;20395;-68
2023/10/27 01:24:28;;;;;;;5.20;1.23;;;12.00;36.40;;;;;;5046297;28;20448;-69
2023/10/27 01:26:54;;;;;;;4.40;0.80;;;12.00;48.80;;;;;;5021816;28;20427;-69
2023/10/27 01:29:22;;;;;;;4.65;1.00;;;12.00;32.10;;;;;;5021214;28;20762;-68
2023/10/27 01:31:48;;;;;;;3.90;0.80;;;12.00;37.30;;;;;;5020265;28;20871;-68
2023/10/27 01:34:13;;;;;;;4.57;0.90;;;12.00;25.70;;;;;;5021457;28;20399;-69
2023/10/27 01:36:39;;;;;;;4.70;0.70;;;11.90;22.00;;;;;;5021200;28;20421;-69
2023/10/27 01:39:04;;;;;;;3.88;0.60;;;11.90;47.50;;;;;;5020933;28;20394;-69
2023/10/27 01:41:30;;;;;;;4.30;1.10;;;12.00;7.80;;;;;;5020489;28;20393;-68
2023/10/27 01:43:56;;;;;;;4.85;1.00;;;12.00;1.00;;;;;;5020954;28;20412;-68
2023/10/27 01:46:21;;;;;;;4.53;0.68;;;11.90;1.00;;;;;;5044925;28;20399;-69
2023/10/27 01:48:47;;;;;;;4.13;0.87;;;12.00;5.30;;;;;;5019480;28;20392;-69
2023/10/27 01:51:14;;;;;;;5.90;0.70;;;12.00;1.00;;;;;;5019952;28;20913;-69
2023/10/27 01:53:40;;;;;;;4.00;0.75;;;12.10;1.00;;;;;;5020843;28;20395;-69
2023/10/27 01:56:06;;;;;;;4.30;0.70;;;12.10;1.00;;;;;;5044665;28;20426;-69
2023/10/27 01:58:31;;;;;;;4.30;0.90;;;12.20;1.00;;;;;;5020212;28;20392;-69
2023/10/27 02:00:57;;;;;;;4.20;0.75;;;12.20;1.00;;;;;;5020943;28;20387;-69
2023/10/27 02:03:22;;;;;;;4.70;0.70;;;12.00;1.00;;;;;;5021467;28;20879;-69
2023/10/27 02:05:48;;;;;;;4.07;1.00;;;12.00;1.00;;;;;;5018971;28;20488;-69
2023/10/27 02:08:14;;;;;;;4.40;0.85;;;11.90;1.00;;;;;;5021209;28;20873;-69
2023/10/27 02:10:39;;;;;;;4.33;0.53;;;11.90;1.00;;;;;;5021546;28;20405;-69
2023/10/27 02:13:05;;;;;;;4.40;0.95;;;12.00;1.00;;;;;;5021337;28;20944;-69
2023/10/27 02:15:30;;;;;;;4.00;0.70;;;11.90;1.00;;;;;;5018434;28;20493;-69
2023/10/27 02:17:56;;;;;;;3.80;0.50;;;11.80;1.00;;;;;;5020867;28;20398;-68
2023/10/27 02:20:22;;;;;;;5.00;1.00;;;11.80;1.00;;;;;;5021601;28;20437;-69
2023/10/27 02:22:47;;;;;;;4.45;0.82;;;11.80;1.00;;;;;;5021369;28;20406;-69
2023/10/27 02:25:13;;;;;;;6.30;0.97;;;11.90;1.00;;;;;;5019723;28;20415;-69
2023/10/27 02:27:40;;;;;;;6.30;1.30;;;11.80;1.00;;;;;;5019771;28;20427;-69
2023/10/27 02:30:07;;;;;;;4.50;0.70;;;11.80;1.00;;;;;;5021032;28;20620;-69
2023/10/27 02:32:33;;;;;;;5.00;1.00;;;11.80;1.00;;;;;;5019535;28;20404;-69
2023/10/27 02:34:58;;;;;;;3.70;0.60;;;11.80;1.00;;;;;;5019721;28;20489;-69
2023/10/27 02:37:24;;;;;;;4.80;0.70;;;11.70;1.00;;;;;;5020587;28;20870;-69
2023/10/27 02:39:49;;;;;;;5.07;0.77;;;11.70;1.00;;;;;;5021057;28;20403;-69
2023/10/27 02:42:15;;;;;;;4.13;0.60;;;11.70;1.00;;;;;;5040249;28;20436;-69
2023/10/27 02:44:41;;;;;;;5.60;1.40;;;11.70;1.00;;;;;;5020351;28;20415;-69
2023/10/27 02:47:07;;;;;;;4.03;0.52;;;11.70;1.00;;;;;;5019603;28;20436;-68
2023/10/27 02:49:32;;;;;;;4.37;0.70;;;11.80;1.00;;;;;;5018855;28;20429;-68
2023/10/27 02:51:58;;;;;;;4.03;0.70;;;11.80;1.00;;;;;;5021720;28;20411;-69
2023/10/27 02:54:23;;;;;;;4.70;1.30;;;11.90;1.00;;;;;;5019521;28;20477;-69
2023/10/27 02:56:49;;;;;;;6.07;0.90;;;12.00;1.00;;;;;;5018117;28;20437;-69
2023/10/27 02:59:14;;;;;;;4.10;0.67;;;12.00;1.00;;;;;;5023200;28;20441;-69
2023/10/27 03:01:40;;;;;;;4.00;0.67;;;12.00;1.00;;;;;;5023377;28;20820;-68
2023/10/27 03:04:05;;;;;;;4.53;1.00;;;12.00;1.00;;;;;;5018475;28;20403;-68
2023/10/27 03:06:31;;;;;;;4.00;0.73;;;11.90;1.00;;;;;;5020736;28;20393;-69
2023/10/27 03:08:56;;;;;;;5.10;1.00;;;12.00;1.00;;;;;;5019469;28;20499;-69
2023/10/27 03:11:22;;;;;;;7.43;0.63;;;12.10;1.00;;;;;;5019489;28;20818;-68
2023/10/27 03:13:48;;;;;;;3.90;0.60;;;12.10;1.00;;;;;;5017799;28;20736;-70
2023/10/27 03:16:16;;;;;;;5.00;0.70;;;12.10;1.00;;;;;;5020767;28;20400;-69
2023/10/27 03:18:42;;;;;;;4.18;0.50;;;12.10;1.00;;;;;;5021977;28;20434;-69
2023/10/27 03:21:07;;;;;;;5.70;0.80;;;12.00;1.00;;;;;;5020369;28;20426;-69
2023/10/27 03:23:33;;;;;;;5.13;0.50;;;12.00;1.00;;;;;;5021168;28;20488;-69
2023/10/27 03:25:58;;;;;;;4.38;0.80;;;12.00;1.00;;;;;;5021616;28;20389;-69
2023/10/27 03:28:24;;;;;;;4.00;0.60;;;12.00;1.00;;;;;;5019953;28;20823;-69
2023/10/27 03:30:50;;;;;;;5.20;0.70;;;12.10;1.00;;;;;;5019396;28;20405;-69
2023/10/27 03:33:17;;;;;;;4.60;0.60;;;12.00;1.00;;;;;;5019646;28;20388;-69
2023/10/27 03:35:43;;;;;;;5.93;0.90;;;12.00;1.00;;;;;;5018989;28;20761;-69
2023/10/27 03:38:10;;;;;;;5.90;0.80;;;12.00;1.00;;;;;;5020525;28;20396;-69
2023/10/27 03:40:39;;;;;;;10.40;1.20;;;12.00;1.00;;;;;;5019029;28;20812;-69
2023/10/27 03:43:04;;;;;;;7.35;1.50;;;12.10;1.00;;;;;;5014942;28;20392;-69
2023/10/27 03:45:30;;;;;;;5.28;0.75;;;12.10;1.00;;;;;;5016861;28;20410;-69
2023/10/27 03:47:56;;;;;;;4.23;0.73;;;12.20;1.00;;;;;;5015919;28;20435;-69
2023/10/27 03:50:21;;;;;;;4.50;1.00;;;12.30;1.00;;;;;;5020262;28;20403;-69
2023/10/27 03:52:47;;;;;;;4.07;0.80;;;12.30;1.00;;;;;;5021506;28;20415;-69
2023/10/27 03:55:12;;;;;;;8.83;0.90;;;12.30;1.00;;;;;;5021928;28;20444;-68
2023/10/27 03:57:40;;;;;;;5.40;0.80;;;12.20;1.00;;;;;;5017504;28;20923;-69
2023/10/27 04:00:07;;;;;;;4.60;0.93;;;12.20;1.00;;;;;;5013761;28;20432;-69
2023/10/27 04:02:33;;;;;;;4.22;0.60;;;12.20;1.00;;;;;;5017877;28;20465;-72
2023/10/27 04:04:59;;;;;;;4.40;0.90;;;12.20;1.00;;;;;;5009472;28;20412;-72
2023/10/27 04:07:25;;;;;;;5.60;1.60;;;12.30;1.00;;;;;;5015970;28;20430;-72
2023/10/27 04:09:50;;;;;;;7.30;0.80;;;12.40;1.00;;;;;;5026175;28;20434;-71
2023/10/27 04:12:16;;;;;;;9.70;1.10;;;12.50;1.00;;;;;;5025770;28;20415;-69
2023/10/27 04:14:41;;;;;;;4.85;1.10;;;12.50;1.00;;;;;;5018560;28;20480;-71
2023/10/27 04:17:07;;;;;;;5.03;0.80;;;12.60;1.00;;;;;;5009670;28;20430;-71
2023/10/27 04:19:33;;;;;;;4.60;0.80;;;12.50;1.00;;;;;;5012054;28;20433;-72
2023/10/27 04:21:58;;;;;;;3.70;0.70;;;12.50;1.00;;;;;;5016158;28;20415;-73
2023/10/27 04:24:25;;;;;;;5.50;0.80;;;12.50;1.00;;;;;;5018040;28;20414;-72
2023/10/27 04:26:50;;;;;;;4.90;1.10;;;12.50;1.00;;;;;;5009471;28;20404;-72
2023/10/27 04:29:17;;;;;;;3.95;0.65;;;12.40;1.00;;;;;;5013096;28;20427;-72
2023/10/27 04:31:43;;;;;;;4.60;0.70;;;12.30;1.00;;;;;;5018753;28;20415;-72
2023/10/27 04:34:09;;;;;;;4.95;1.48;;;12.50;1.00;;;;;;5008947;28;20417;-72
2023/10/27 04:36:34;;;;;;;13.60;1.40;;;12.50;1.00;;;;;;5021275;28;20415;-72
2023/10/27 04:39:00;;;;;;;6.70;1.20;;;12.60;1.00;;;;;;5021787;28;20387;-72
2023/10/27 04:41:30;;;;;;;4.20;0.80;;;12.60;1.00;;;;;;5025213;28;20902;-73
2023/10/27 04:43:56;;;;;;;5.88;1.02;;;12.50;1.00;;;;;;5018939;28;20491;-71
2023/10/27 04:46:21;;;;;;;7.20;0.90;;;12.40;1.00;;;;;;5016519;28;20402;-71
2023/10/27 04:48:47;;;;;;;4.37;0.90;;;12.30;1.00;;;;;;5019148;28;20930;-71
2023/10/27 04:51:12;;;;;;;4.30;1.00;;;12.40;1.00;;;;;;5019568;28;20403;-73
2023/10/27 04:53:38;;;;;;;5.57;0.90;;;12.60;1.00;;;;;;5024000;28;20413;-72
2023/10/27 04:56:04;;;;;;;4.60;1.00;;;12.70;1.00;;;;;;5029880;28;20410;-72
2023/10/27 04:58:29;;;;;;;4.10;0.60;;;12.60;1.00;;;;;;5025379;28;20441;-72
2023/10/27 05:00:55;;;;;;;3.90;0.60;;;12.50;1.00;;;;;;5028326;28;20415;-72
2023/10/27 05:03:20;;;;;;;4.10;0.60;;;12.40;1.00;;;;;;5023140;28;20442;-72
2023/10/27 05:05:46;;;;;;;4.60;0.80;;;12.30;1.00;;;;;;5026607;28;20509;-71
2023/10/27 05:08:11;;;;;;;6.57;1.00;;;12.20;1.00;;;;;;5019577;28;20477;-71
2023/10/27 05:10:39;;;;;;;4.27;0.80;;;12.40;1.00;;;;;;5024811;28;20438;-69
2023/10/27 05:13:04;;;;;;;4.27;0.70;;;12.40;1.00;;;;;;5028263;28;20790;-68
2023/10/27 05:15:30;;;;;;;4.40;0.70;;;12.50;1.00;;;;;;5027645;28;20493;-69
2023/10/27 05:17:55;;;;;;;4.70;0.97;;;12.50;1.00;;;;;;5025758;28;20404;-69
2023/10/27 05:20:21;;;;;;;4.70;0.80;;;12.40;1.00;;;;;;5023372;28;20407;-69
2023/10/27 05:22:46;;;;;;;4.00;0.70;;;12.40;1.00;;;;;;5028045;28;20414;-69
2023/10/27 05:25:12;;;;;;;5.25;0.70;;;12.30;1.00;;;;;;5031713;28;20398;-70
2023/10/27 05:27:37;;;;;;;4.60;0.90;;;12.20;1.00;;;;;;5028738;28;20497;-70
2023/10/27 05:30:03;;;;;;;4.30;0.90;;;12.20;1.00;;;;;;5032400;28;20433;-70
2023/10/27 05:32:33;;;;;;;6.00;1.20;;;12.00;1.00;;;;;;5022769;28;20404;-69
2023/10/27 05:34:58;;;;;;;4.20;0.60;;;12.10;1.00;;;;;;5021149;28;20493;-71
2023/10/27 05:37:24;;;;;;;4.07;0.63;;;12.00;1.00;;;;;;5029860;28;20521;-70
2023/10/27 05:39:49;;;;;;;3.80;0.60;;;12.00;1.00;;;;;;5013218;28;20409;-70
2023/10/27 05:42:15;;;;;;;5.70;1.00;;;11.90;1.00;;;;;;5010847;28;20407;-69
2023/10/27 05:44:41;;;;;;;5.20;1.00;;;11.90;1.00;;;;;;5010338;28;20401;-70
2023/10/27 05:47:07;;;;;;;4.13;0.60;;;11.90;1.00;;;;;;5009771;28;20834;-70
2023/10/27 05:49:32;;;;;;;4.70;0.80;;;11.90;1.00;;;;;;5009617;28;20405;-70
2023/10/27 05:52:02;;;;;;;3.90;0.70;;;12.00;1.00;;;;;;5010175;28;20399;-70
2023/10/27 05:54:28;;;;;;;4.00;0.70;;;12.10;1.00;;;;;;5011507;28;20413;-69
2023/10/27 05:56:54;;;;;;;5.07;0.90;;;12.10;1.00;;;;;;5011749;28;20828;-69
2023/10/27 05:59:20;;;;;;;3.90;0.70;;;12.10;1.00;;;;;;5011296;28;20397;-70
2023/10/27 06:01:48;;;;;;;4.60;0.80;;;11.90;1.00;;;;;;5010681;28;20476;-70
2023/10/27 06:04:17;;;;;;;5.70;1.00;;;11.80;1.00;;;;;;5017579;28;20773;-70
2023/10/27 06:06:42;;;;;;;3.80;0.60;;;11.80;1.00;;;;;;5027559;28;20452;-70
2023/10/27 06:09:08;;;;;;;4.93;0.90;;;11.70;1.00;;;;;;5012642;28;20408;-70
2023/10/27 06:11:34;;;;;;;4.43;1.20;;;11.60;17.70;;;;;;5031530;28;20410;-70
2023/10/27 06:14:00;;;;;;;4.50;0.90;;;11.50;99.90;;;;;;5031485;28;20394;-70
2023/10/27 06:16:25;;;;;;;4.13;0.73;;;11.60;99.90;;;;;;5030816;28;20399;-70
2023/10/27 06:18:54;;;;;;;4.90;0.70;;;11.60;99.90;;;;;;5030965;28;20395;-70
2023/10/27 06:21:20;;;;;;;5.40;0.85;;;11.70;99.90;;;;;;5029280;28;20869;-69
2023/10/27 06:23:45;;;;;;;7.10;0.90;;;11.60;99.90;;;;;;5030700;28;20426;-70
2023/10/27 06:26:11;;;;;;;4.25;0.90;;;11.70;99.90;;;;;;5030520;28;20754;-70
2023/10/27 06:28:36;;;;;;;4.40;0.70;;;11.80;99.90;;;;;;5030302;28;20817;-70
2023/10/27 06:31:04;;;;;;;3.93;0.60;;;11.80;99.90;;;;;;5031247;28;20781;-70
2023/10/27 06:33:33;;;;;;;5.57;0.77;;;11.80;99.90;;;;;;5030948;28;20382;-68
2023/10/27 06:36:01;;;;;;;4.20;0.70;;;11.80;99.90;;;;;;5030324;28;20431;-69
2023/10/27 06:38:26;;;;;;;4.30;0.80;;;11.80;99.90;;;;;;5030495;28;20438;-69
2023/10/27 06:40:52;;;;;;;4.03;0.70;;;11.70;99.90;;;;;;5030494;28;20450;-70
2023/10/27 06:43:18;;;;;;;3.70;0.57;;;11.80;99.90;;;;;;5030745;28;20388;-69
2023/10/27 06:45:44;;;;;;;4.32;0.63;;;11.70;99.90;;;;;;5030766;28;20415;-69
2023/10/27 06:48:09;;;;;;;3.83;0.50;;;11.70;99.90;;;;;;5032258;28;20489;-69
2023/10/27 06:50:35;;;;;;;3.80;0.70;;;11.60;99.90;;;;;;5031285;28;20387;-69
2023/10/27 06:53:01;;;;;;;3.90;0.70;;;11.70;99.90;;;;;;5030661;28;20394;-69
2023/10/27 06:55:26;;;;;;;3.80;0.70;;;11.70;99.90;;;;;;5029798;28;20848;-69
2023/10/27 06:57:51;;;;;;;4.00;0.80;;;11.70;92.50;;;;;;5031020;28;20394;-69
2023/10/27 07:00:17;;;;;;;4.47;0.80;;;11.80;99.90;;;;;;5029330;28;20412;-69
2023/10/27 07:02:43;;;;;;;3.67;0.60;;;11.90;66.80;;;;;;5031094;28;21676;-69
2023/10/27 07:05:13;;;;;;;4.00;0.60;;;12.00;1.00;;;;;;5031597;28;20431;-69
2023/10/27 07:07:41;;;;;;;3.50;0.40;;;12.20;1.00;;;;;;5032536;28;20510;-69
2023/10/27 07:10:07;;;;;;;5.18;1.30;;;12.20;1.00;;;;;;5032813;28;20410;-69
2023/10/27 07:12:33;;;;;;;4.40;0.70;;;12.30;1.00;;;;;;5031629;28;20476;-69
2023/10/27 07:15:00;;;;;;;9.57;0.63;;;12.20;1.00;;;;;;5033069;28;20386;-69
2023/10/27 07:17:25;;;;;;;5.80;0.80;;;12.20;1.00;;;;;;5027641;28;20824;-69
2023/10/27 07:19:51;;;;;;;5.20;0.77;;;12.20;1.00;;;;;;5015961;28;20393;-69
2023/10/27 07:22:19;;;;;;;3.90;0.60;;;12.10;1.00;;;;;;5017416;28;20400;-70
2023/10/27 07:24:45;;;;;;;4.70;0.73;;;12.20;1.00;;;;;;5017120;28;20434;-70
2023/10/27 07:27:10;;;;;;;4.50;0.85;;;12.20;1.00;;;;;;5017080;28;20981;-70
2023/10/27 07:29:36;;;;;;;3.80;0.60;;;12.30;1.00;;;;;;5015648;28;20419;-70
2023/10/27 07:32:02;;;;;;;5.37;0.60;;;12.50;1.00;;;;;;5017093;28;20392;-70
2023/10/27 07:34:27;;;;;;;3.80;0.50;;;12.60;1.00;;;;;;5016045;28;20432;-70
2023/10/27 07:36:53;;;;;;;3.90;0.70;;;12.60;1.00;;;;;;5014973;28;20768;-70
2023/10/27 07:39:19;;;;;;;3.83;0.40;;;12.90;1.00;;;;;;5014015;28;20385;-69
2023/10/27 07:41:44;;;;;;;5.72;0.73;;;12.90;1.00;;;;;;5012601;28;20415;-69
2023/10/27 07:44:10;;;;;;;4.27;0.60;;;13.00;1.00;;;;;;5012393;28;20503;-71
2023/10/27 07:46:35;;;;;;;3.80;0.50;;;13.10;1.00;;;;;;5012238;28;20454;-70
2023/10/27 07:49:01;;;;;;;3.60;0.30;;;13.40;1.00;;;;;;5013858;28;20755;-70
2023/10/27 07:51:27;;;;;;;18.50;0.60;;;13.40;1.00;;;;;;5021768;28;20399;-79
2023/10/27 07:53:52;;;;;;;4.85;0.52;;;13.60;1.00;;;;;;5030654;28;20404;-70
2023/10/27 07:56:18;;;;;;;3.87;0.50;;;13.60;1.00;;;;;;5031654;28;20402;-70
2023/10/27 07:58:44;;;;;;;4.03;0.50;;;13.50;1.00;;;;;;5033958;28;20478;-70
2023/10/27 08:01:10;;;;;;;5.28;0.60;;;13.50;1.00;;;;;;5030083;28;20466;-70
2023/10/27 08:03:36;;;;;;;3.70;0.40;;;13.60;1.00;;;;;;5028889;28;20482;-70
2023/10/27 08:06:07;;;;;;;3.60;0.33;;;13.50;1.00;;;;;;5029542;28;20409;-71
2023/10/27 08:08:33;;;;;;;4.20;0.60;;;13.30;1.00;;;;;;5029355;28;20437;-70
2023/10/27 08:10:59;;;;;;;3.60;0.30;;;13.10;1.00;;;;;;5027445;28;20457;-70
2023/10/27 08:13:25;;;;;;;3.70;0.40;;;12.80;1.00;;;;;;5028731;28;20398;-70
2023/10/27 08:15:51;;;;;;;4.00;0.60;;;12.70;1.00;;;;;;5028423;28;20765;-70
2023/10/27 08:18:16;;;;;;;3.60;0.30;;;12.80;1.00;;;;;;5028733;28;20403;-71
2023/10/27 08:20:42;;;;;;;4.03;0.35;;;13.00;1.00;;;;;;5028692;28;20484;-70
2023/10/27 08:23:09;;;;;;;7.30;0.50;;;13.00;1.00;;;;;;5029889;28;20418;-71
2023/10/27 08:25:35;;;;;;;3.90;0.40;;;13.10;1.00;;;;;;5032665;28;20407;-71
2023/10/27 08:28:00;;;;;;;6.40;0.60;;;13.20;1.00;;;;;;5033092;28;20505;-70
2023/10/27 08:30:27;;;;;;;8.30;0.90;;;13.20;1.00;;;;;;5032507;28;20398;-70
2023/10/27 08:32:53;;;;;;;4.10;0.70;;;12.90;1.00;;;;;;5032760;28;20897;-71
2023/10/27 08:35:19;;;;;;;5.05;0.52;;;12.90;1.00;;;;;;5032401;28;20471;-71
2023/10/27 08:37:44;;;;;;;3.60;0.30;;;12.90;1.00;;;;;;5031485;28;20392;-70
2023/10/27 08:40:11;;;;;;;3.60;0.40;;;12.90;1.00;;;;;;5032374;28;20398;-71
2023/10/27 08:42:40;;;;;;;11.50;0.80;;;13.00;1.00;;;;;;5032121;28;20414;-71
2023/10/27 08:45:05;;;;;;;3.70;0.33;;;13.20;1.00;;;;;;5032098;28;20391;-71
2023/10/27 08:47:34;;;;;;;4.82;0.43;;;13.20;1.00;;;;;;5032880;28;20795;-71
2023/10/27 08:50:00;;;;;;;5.35;0.50;;;12.90;1.00;;;;;;5032380;28;20828;-71
2023/10/27 08:52:27;;;;;;;7.57;0.80;;;12.90;1.00;;;;;;5032621;28;20478;-71
2023/10/27 08:54:52;;;;;;;7.40;0.70;;;12.90;1.00;;;;;;5032029;28;20407;-70
2023/10/27 08:57:18;;;;;;;6.20;0.30;;;12.90;1.00;;;;;;5032256;28;20807;-71
2023/10/27 08:59:43;;;;;;;3.70;0.30;;;12.60;1.00;;;;;;5031570;28;20417;-70
2023/10/27 09:02:09;;;;;;;4.10;0.60;;;12.80;1.00;;;;;;5032198;28;20473;-70
2023/10/27 09:04:45;;;;;;;3.72;0.35;;;13.00;1.00;;;;;;5032067;28;20478;-70
2023/10/27 09:07:10;;;;;;;3.60;0.30;;;13.10;1.00;;;;;;5032434;28;20766;-70
2023/10/27 09:09:36;;;;;;;4.00;0.40;;;13.00;1.00;;;;;;5031937;28;20401;-71
2023/10/27 09:12:02;;;;;;;10.23;0.80;;;13.10;1.00;;;;;;5032321;28;20757;-71
2023/10/27 09:14:32;;;;;;;3.60;0.30;;;13.30;1.00;;;;;;5031525;28;20399;-70
2023/10/27 09:17:05;;;;;;;3.70;0.40;;;13.30;1.00;;;;;;5032157;28;20489;-71
2023/10/27 09:19:32;;;;;;;4.70;0.40;;;13.30;1.00;;;;;;5032168;28;20979;-71
2023/10/27 09:21:57;;;;;;;7.70;0.40;;;13.40;1.00;;;;;;5031530;28;20424;-70
2023/10/27 09:24:25;;;;;;;3.60;0.20;;;13.50;1.00;;;;;;5031611;28;20379;-70
2023/10/27 09:26:51;;;;;;;4.30;0.40;;;13.60;1.00;;;;;;5031042;28;20747;-71
2023/10/27 09:29:17;;;;;;;3.90;0.40;;;13.70;1.00;;;;;;5031484;28;20840;-70
2023/10/27 09:31:43;;;;;;;4.40;0.50;;;13.70;1.00;;;;;;5031656;28;20486;-70
2023/10/27 09:34:15;;;;;;;3.70;0.40;;;13.90;1.00;;;;;;5031457;28;20429;-70
2023/10/27 09:36:42;;;;;;;5.10;0.50;;;13.80;1.00;;;;;;5030168;28;20379;-70
2023/10/27 09:39:09;;;;;;;3.60;0.30;;;13.90;1.00;;;;;;5030982;28;20395;-70
2023/10/27 09:41:36;;;;;;;7.50;0.90;;;13.50;1.00;;;;;;5031635;28;20430;-70
2023/10/27 09:44:02;;;;;;;3.90;0.50;;;13.30;1.00;;;;;;5030178;28;20399;-70
2023/10/27 09:46:29;;;;;;;4.90;0.50;;;13.60;1.00;;;;;;5031470;28;20395;-70
2023/10/27 09:48:58;;;;;;;3.67;0.30;;;13.80;1.00;;;;;;5031088;28;21747;-70
2023/10/27 09:51:26;;;;;;;3.70;0.40;;;13.90;1.00;;;;;;5031245;28;20406;-70
2023/10/27 09:53:53;;;;;;;3.70;0.30;;;13.80;1.00;;;;;;5030971;28;20402;-70
2023/10/27 09:56:19;;;;;;;4.93;0.65;;;13.50;1.00;;;;;;5030967;28;20383;-72
2023/10/27 09:58:45;;;;;;;3.80;0.50;;;13.10;1.00;;;;;;5030983;28;20479;-69
2023/10/27 10:01:11;;;;;;;3.90;0.30;;;13.00;1.00;;;;;;5031039;28;20395;-70
2023/10/27 10:03:41;;;;;;;5.85;1.27;;;13.00;1.00;;;;;;5031032;28;20403;-70
2023/10/27 10:06:23;;;;;;;5.20;0.40;;;13.00;1.00;;;;;;5030775;28;20387;-70
2023/10/27 10:09:11;;;;;;;4.70;0.30;;;13.20;1.00;;;;;;5030682;28;20841;-70
2023/10/27 10:11:46;;;;;;;7.70;0.90;;;13.40;1.00;;;;;;5030560;28;20947;-70
2023/10/27 10:14:43;;;;;;;3.70;0.40;;;14.70;1.00;;;;;;5030587;28;20383;-71
2023/10/27 10:17:09;;;;;;;3.90;0.60;;;15.60;1.00;;;;;;5030590;28;20968;-70
2023/10/27 10:19:48;;;;;;;4.57;0.70;;;15.80;1.00;;;;;;5031012;28;20490;-70
2023/10/27 10:22:39;;;;;;;3.70;0.30;;;15.00;1.00;;;;;;5030824;28;20383;-70
2023/10/27 10:25:23;;;;;;;3.65;0.30;;;14.40;1.00;;;;;;5030269;28;20394;-70
2023/10/27 10:28:07;;;;;;;4.20;0.50;;;13.70;1.00;;;;;;5013571;28;20523;-70
2023/10/27 10:30:43;;;;;;;8.10;1.10;;;13.70;1.00;;;;;;5021773;28;20456;-70
2023/10/27 10:33:22;;;;;;;4.00;0.45;;;13.70;1.00;;;;;;5010749;28;20377;-69
2023/10/27 10:35:48;;;;;;;4.00;0.50;;;13.80;1.00;;;;;;5009125;28;20416;-69
2023/10/27 10:38:23;;;;;;;7.40;1.15;;;13.50;1.00;;;;;;5010369;28;20747;-69
2023/10/27 10:40:53;;;;;;;4.13;0.63;;;13.60;1.00;;;;;;5010153;28;20409;-70
2023/10/27 10:43:30;;;;;;;4.72;0.60;;;13.70;1.00;;;;;;5010650;28;20392;-70
2023/10/27 10:45:57;;;;;;;4.20;0.67;;;14.00;1.00;;;;;;5010375;28;20473;-71
2023/10/27 10:48:26;;;;;;;13.30;1.00;;;13.90;1.00;;;;;;5029038;28;20418;-71
2023/10/27 10:50:59;;;;;;;4.30;0.70;;;14.10;1.00;;;;;;5029796;28;20418;-71
2023/10/27 10:53:24;;;;;;;4.40;0.70;;;14.30;1.00;;;;;;5030069;28;20481;-70
2023/10/27 10:55:56;;;;;;;3.60;0.40;;;14.30;1.00;;;;;;5029319;28;20818;-70
2023/10/27 10:58:23;;;;;;;4.80;0.90;;;14.50;1.00;;;;;;5029933;28;20487;-70
2023/10/27 11:00:49;;;;;;;4.00;0.50;;;14.30;1.00;;;;;;5029753;28;20415;-69
2023/10/27 11:03:16;;;;;;;8.90;0.50;;;14.40;1.00;;;;;;5030200;28;20672;-70
2023/10/27 11:05:42;;;;;;;12.20;1.20;;;14.50;1.00;;;;;;5029472;28;20417;-70
2023/10/27 11:08:07;;;;;;;7.20;1.17;;;14.60;1.00;;;;;;5029443;28;20980;-70
2023/10/27 11:10:34;;;;;;;4.10;0.60;;;14.80;1.00;;;;;;5029951;28;20383;-70
2023/10/27 11:13:04;;;;;;;9.50;1.00;;;15.10;1.00;;;;;;5030139;28;20398;-68
2023/10/27 11:15:49;;;;;;;4.90;0.50;;;15.40;1.00;;;;;;5029419;28;20391;-69
2023/10/27 11:18:15;;;;;;;4.30;0.70;;;15.40;1.00;;;;;;5029775;28;20399;-69
2023/10/27 11:20:45;;;;;;;4.40;0.40;;;15.00;1.00;;;;;;5029609;28;20870;-69
2023/10/27 11:23:15;;;;;;;4.03;0.52;;;15.10;1.00;;;;;;5023984;28;20476;-69
2023/10/27 11:25:42;;;;;;;5.50;0.50;;;15.40;1.00;;;;;;5009350;28;20389;-70
2023/10/27 11:28:26;;;;;;;3.80;0.40;;;15.80;1.00;;;;;;5009265;28;20790;-70
2023/10/27 11:31:19;;;;;;;4.20;0.60;;;15.90;1.00;;;;;;5009533;28;20421;-70
2023/10/27 11:34:07;;;;;;;6.40;0.70;;;16.30;1.00;;;;;;5009816;28;20879;-70
2023/10/27 11:36:43;;;;;;;4.30;0.50;;;16.30;1.00;;;;;;5010128;28;20397;-69
2023/10/27 11:39:22;;;;;;;3.90;0.40;;;15.80;1.00;;;;;;5009194;28;20905;-69
2023/10/27 11:42:06;;;;;;;6.80;0.55;;;15.50;1.00;;;;;;5009105;28;20397;-69
2023/10/27 11:44:40;;;;;;;4.00;0.50;;;15.90;1.00;;;;;;5009595;28;20401;-69
2023/10/27 11:47:06;;;;;;;6.00;1.00;;;15.70;1.00;;;;;;5009253;28;20448;-69
2023/10/27 11:49:32;;;;;;;7.20;0.90;;;15.50;1.00;;;;;;5009717;28;20859;-69
2023/10/27 11:51:58;;;;;;;5.70;0.90;;;15.70;1.00;;;;;;5009558;28;20384;-69
2023/10/27 11:54:25;;;;;;;4.05;0.50;;;15.60;1.00;;;;;;5009363;28;20910;-69
2023/10/27 11:56:52;;;;;;;4.30;0.60;;;15.50;1.00;;;;;;5009338;28;20389;-69
2023/10/27 11:59:18;;;;;;;4.33;0.60;;;15.60;1.00;;;;;;5008536;28;20401;-69
2023/10/27 12:01:44;;;;;;;4.10;0.45;;;15.80;1.00;;;;;;5007774;28;20480;-70
2023/10/27 12:04:10;;;;;;;3.90;0.40;;;16.20;1.00;;;;;;5009105;28;20500;-70
2023/10/27 12:06:40;;;;;;;4.70;0.60;;;16.40;1.00;;;;;;5009099;28;20477;-70
2023/10/27 12:09:07;;;;;;;5.20;0.90;;;16.70;1.00;;;;;;4990945;28;20439;-69
2023/10/27 12:11:33;;;;;;;4.50;0.77;;;16.60;1.00;;;;;;5009638;28;20399;-70
2023/10/27 12:13:59;;;;;;;4.22;0.50;;;16.40;1.00;;;;;;5008971;28;20397;-69
2023/10/27 12:16:27;;;;;;;4.10;0.50;;;16.80;1.00;;;;;;5009301;28;20396;-68
2023/10/27 12:18:55;;;;;;;4.13;0.50;;;17.00;1.00;;;;;;5009395;28;20424;-69
2023/10/27 12:21:25;;;;;;;4.05;0.30;;;17.40;1.00;;;;;;5009114;28;20436;-69
2023/10/27 12:23:52;;;;;;;4.50;0.50;;;17.30;1.00;;;;;;5007836;28;20508;-69
2023/10/27 12:26:18;;;;;;;4.20;0.60;;;17.00;1.00;;;;;;5023128;28;20537;-69
2023/10/27 12:28:44;;;;;;;7.60;0.70;;;16.90;1.00;;;;;;5026950;28;20514;-69
2023/10/27 12:31:10;;;;;;;4.00;0.35;;;16.80;1.00;;;;;;5028474;28;20800;-69
2023/10/27 12:33:35;;;;;;;5.63;0.60;;;17.10;1.00;;;;;;5027128;28;20399;-70
2023/10/27 12:36:09;;;;;;;5.07;0.57;;;17.10;1.00;;;;;;5027571;28;20399;-70
2023/10/27 12:38:36;;;;;;;5.90;0.80;;;16.50;1.00;;;;;;5022020;28;20417;-69
2023/10/27 12:41:04;;;;;;;6.97;0.90;;;16.60;1.00;;;;;;5015365;28;20589;-68
2023/10/27 12:43:30;;;;;;;4.20;0.60;;;16.40;1.00;;;;;;5008641;28;20408;-70
2023/10/27 12:45:56;;;;;;;4.10;0.60;;;16.00;1.00;;;;;;5008797;28;20419;-69
2023/10/27 12:48:22;;;;;;;4.00;0.50;;;16.00;1.00;;;;;;5018390;28;20757;-68
2023/10/27 12:50:47;;;;;;;4.47;0.60;;;15.90;1.00;;;;;;5014858;28;20798;-68
2023/10/27 12:53:14;;;;;;;4.13;0.60;;;16.20;1.00;;;;;;5019456;28;20812;-68
2023/10/27 12:55:40;;;;;;;4.80;0.80;;;16.30;1.00;;;;;;5025502;28;20502;-69